Time;durP1;ratioP1;P1;durP2;ratioP2;P2;SDS_P1;SDS_P2;PMS_P1;PMS_P2;Temp;Humidity;BMP_temperature;BMP_pressure;BME280_temperature;BME280_humidity;BME280_pressure;Samples;Min_cycle;Max_cycle;Signal;HPM_P1;HPM_P2
2022/07/17 05:54:58;;;;;;;6.95;2.20;;;14.60;99.90;;;;;;6171639;23;20107;-78
2022/07/17 05:57:27;;;;;;;6.40;2.47;;;14.70;99.90;;;;;;6134954;23;20486;-81
2022/07/17 05:59:52;;;;;;;10.32;2.33;;;14.80;99.90;;;;;;6134820;23;20522;-81
2022/07/17 06:03:30;;;;;;;9.50;2.90;;;14.90;99.90;;;;;;6134941;23;20044;-78
2022/07/17 06:06:02;;;;;;;7.20;2.10;;;15.00;99.90;;;;;;5989415;23;20561;-77
2022/07/17 06:08:49;;;;;;;12.32;2.67;;;15.10;99.90;;;;;;6013110;23;20082;-79
2022/07/17 06:11:22;;;;;;;7.30;2.13;;;15.10;99.90;;;;;;6120744;23;20120;-79
2022/07/17 06:13:57;;;;;;;7.20;2.20;;;15.20;99.90;;;;;;6138071;23;20013;-82
2022/07/17 06:16:22;;;;;;;6.22;2.13;;;15.30;99.90;;;;;;6135106;23;20088;-80
2022/07/17 06:18:48;;;;;;;4.43;2.05;;;15.50;99.90;;;;;;6135082;23;20048;-82
2022/07/17 06:21:14;;;;;;;7.93;2.60;;;15.60;99.90;;;;;;6134671;23;20048;-79
2022/07/17 06:23:40;;;;;;;6.10;2.20;;;15.60;99.90;;;;;;6135148;23;20009;-82
2022/07/17 06:26:08;;;;;;;8.85;3.17;;;15.70;99.90;;;;;;6135243;23;20020;-83
2022/07/17 06:28:42;;;;;;;8.93;2.83;;;15.70;99.90;;;;;;6135516;23;20032;-82
2022/07/17 06:31:10;;;;;;;10.02;2.42;;;15.70;99.90;;;;;;6159009;23;20013;-80
2022/07/17 06:33:41;;;;;;;11.60;2.50;;;15.70;99.90;;;;;;6134752;23;20016;-85
2022/07/17 06:36:08;;;;;;;7.00;2.35;;;15.80;99.90;;;;;;6159139;23;20501;-80
2022/07/17 06:38:34;;;;;;;10.45;2.50;;;15.80;99.90;;;;;;6135380;23;20005;-80
2022/07/17 06:41:08;;;;;;;7.22;2.33;;;15.80;99.90;;;;;;6134331;23;20120;-82
2022/07/17 06:43:36;;;;;;;9.60;2.03;;;15.90;99.90;;;;;;6135969;23;20462;-80
2022/07/17 06:46:02;;;;;;;8.75;1.92;;;16.00;99.90;;;;;;6136178;23;20013;-78
2022/07/17 06:48:30;;;;;;;6.32;2.33;;;16.00;99.90;;;;;;6136668;23;20013;-84
2022/07/17 06:50:56;;;;;;;7.35;2.00;;;16.10;99.90;;;;;;6135936;23;20040;-82
2022/07/17 06:53:52;;;;;;;4.93;1.88;;;16.20;99.90;;;;;;6136082;23;20083;-79
2022/07/17 06:57:30;;;;;;;11.98;2.50;;;16.30;99.90;;;;;;6187160;23;20019;-81
2022/07/17 07:00:35;;;;;;;11.73;1.98;;;16.40;99.90;;;;;;6136387;23;20039;-80
2022/07/17 07:03:01;;;;;;;12.80;1.90;;;16.40;99.90;;;;;;6134990;23;20020;-77
2022/07/17 07:05:52;;;;;;;;;;;;;;;;;;;;;
2022/07/17 07:08:24;;;;;;;7.43;1.75;;;16.60;99.90;;;;;;6160660;23;20105;-79
2022/07/17 07:11:00;;;;;;;6.90;1.75;;;16.60;99.90;;;;;;6136154;23;20013;-79
2022/07/17 07:13:35;;;;;;;6.82;1.52;;;16.70;99.90;;;;;;6162229;23;20020;-77
2022/07/17 07:16:02;;;;;;;3.95;1.10;;;16.90;99.90;;;;;;6161101;23;20005;-78
2022/07/17 07:18:28;;;;;;;11.02;2.30;;;17.10;99.90;;;;;;6160580;23;20037;-80
2022/07/17 07:21:26;;;;;;;8.38;1.40;;;17.50;99.90;;;;;;6138067;23;20331;-82
2022/07/17 07:24:32;;;;;;;6.35;1.60;;;17.90;99.90;;;;;;6135563;23;20012;-80
2022/07/17 07:27:26;;;;;;;8.32;1.90;;;18.40;99.90;;;;;;6136121;23;20005;-81
2022/07/17 07:30:11;;;;;;;7.10;1.73;;;18.70;99.90;;;;;;6120255;23;20039;-78
2022/07/17 07:32:47;;;;;;;9.95;1.38;;;18.90;99.50;;;;;;6135825;23;20084;-81
2022/07/17 07:35:12;;;;;;;5.32;1.30;;;18.90;99.80;;;;;;6136175;23;20091;-79
2022/07/17 07:37:44;;;;;;;10.25;1.52;;;19.20;99.90;;;;;;6136548;23;20039;-81
2022/07/17 07:40:13;;;;;;;5.68;1.38;;;19.40;99.80;;;;;;6160441;23;20040;-79
2022/07/17 07:42:41;;;;;;;7.20;1.15;;;19.70;99.00;;;;;;6160837;23;20009;-78
2022/07/17 07:45:10;;;;;;;6.13;1.35;;;19.90;99.20;;;;;;6135545;23;20009;-78
2022/07/17 07:47:48;;;;;;;5.95;1.40;;;20.00;98.90;;;;;;6136047;23;20072;-77
2022/07/17 07:54:39;;;;;;;7.25;1.30;;;20.50;97.70;;;;;;6130636;23;20031;-79
2022/07/17 07:57:08;;;;;;;4.78;1.20;;;20.70;97.30;;;;;;6130551;23;20393;-79
2022/07/17 14:21:38;;;;;;;2.88;1.60;;;28.10;65.60;;;;;;6184995;23;20496;-83
2022/07/17 14:35:02;;;;;;;3.42;1.77;;;28.00;65.60;;;;;;6083791;23;20022;-81
2022/07/17 14:37:52;;;;;;;4.80;1.70;;;28.10;65.20;;;;;;6045986;23;20121;-78
2022/07/17 14:40:54;;;;;;;;;;;;;;;;;;;;;
2022/07/17 14:51:11;;;;;;;3.73;1.60;;;28.50;63.70;;;;;;6065139;23;20109;-79
2022/07/17 14:53:56;;;;;;;;;;;;;;;;;;;;;
2022/07/17 14:56:32;;;;;;;6.35;1.90;;;28.60;62.00;;;;;;6039344;23;20015;-82
2022/07/17 15:40:19;;;;;;;3.78;2.20;;;29.50;56.70;;;;;;6176808;23;20436;-73
2022/07/17 15:43:19;;;;;;;5.32;1.90;;;29.70;56.80;;;;;;6160202;23;20021;-73
2022/07/17 15:45:44;;;;;;;4.07;1.85;;;30.20;56.00;;;;;;6135681;23;20351;-72
2022/07/17 15:48:19;;;;;;;3.20;1.65;;;30.60;56.00;;;;;;6135021;23;20029;-73
2022/07/17 15:51:34;;;;;;;;;;;;;;;;;;;;;
2022/07/17 15:54:43;;;;;;;4.55;2.10;;;31.40;54.90;;;;;;6158916;23;20295;-74
2022/07/17 15:57:11;;;;;;;3.85;2.00;;;31.70;53.20;;;;;;6134902;23;20095;-73
2022/07/17 16:04:39;;;;;;;;;;;;;;;;;;;;;
2022/07/17 16:10:10;;;;;;;8.98;1.90;;;31.40;51.30;;;;;;6008862;23;20432;-68
2022/07/17 16:12:54;;;;;;;5.00;1.73;;;31.00;52.40;;;;;;5985300;23;20020;-72
2022/07/17 16:15:20;;;;;;;6.53;2.08;;;30.90;52.30;;;;;;5901875;24;20050;-69
2022/07/17 16:17:46;;;;;;;5.10;1.70;;;31.00;52.60;;;;;;5902109;24;20410;-71
2022/07/17 16:20:17;;;;;;;7.00;1.65;;;30.90;52.30;;;;;;5926831;23;20019;-70
2022/07/17 16:23:07;;;;;;;4.22;2.22;;;30.80;52.00;;;;;;6010740;23;20019;-70
2022/07/17 16:26:29;;;;;;;4.40;1.77;;;30.60;52.60;;;;;;5990543;23;20100;-72
2022/07/17 16:29:03;;;;;;;4.35;1.90;;;30.40;52.10;;;;;;6035953;23;20015;-70
2022/07/17 16:31:41;;;;;;;5.60;2.20;;;29.80;53.80;;;;;;6012813;23;20019;-70
2022/07/17 16:34:07;;;;;;;5.03;2.35;;;30.10;53.90;;;;;;6001537;23;20022;-69
2022/07/17 16:36:43;;;;;;;3.53;1.77;;;30.60;53.70;;;;;;6046447;23;20021;-71
2022/07/17 16:39:28;;;;;;;6.45;2.00;;;30.80;52.30;;;;;;6082249;23;20455;-71
2022/07/17 16:41:57;;;;;;;4.93;2.13;;;30.80;52.00;;;;;;6154425;23;20093;-69
2022/07/17 16:44:23;;;;;;;3.83;1.70;;;30.40;52.60;;;;;;6130017;23;20440;-70
2022/07/17 16:51:12;;;;;;;3.83;1.92;;;29.10;54.30;;;;;;6154514;23;20080;-72
2022/07/17 16:53:59;;;;;;;4.18;2.30;;;28.40;55.50;;;;;;6154826;23;20027;-76
2022/07/17 16:57:19;;;;;;;3.25;2.08;;;28.60;54.80;;;;;;6105791;23;20464;-71
2022/07/17 17:00:29;;;;;;;3.70;2.00;;;28.30;56.60;;;;;;5993006;23;20063;-71
2022/07/17 17:03:13;;;;;;;5.68;2.28;;;27.70;57.90;;;;;;6018003;23;20023;-71
2022/07/17 17:12:32;;;;;;;3.88;2.03;;;26.70;60.20;;;;;;6155550;23;20084;-69
2022/07/17 17:14:58;;;;;;;4.03;2.22;;;26.20;60.70;;;;;;6154157;23;20014;-70
2022/07/17 17:17:26;;;;;;;4.05;2.10;;;26.10;61.70;;;;;;6105464;23;20143;-70
2022/07/17 17:20:36;;;;;;;4.75;2.30;;;26.10;62.30;;;;;;6129475;23;20025;-70
2022/07/17 17:23:19;;;;;;;3.63;2.17;;;26.10;63.10;;;;;;6041737;23;20014;-72
2022/07/17 17:26:36;;;;;;;4.28;2.22;;;25.90;63.30;;;;;;6153952;23;20376;-70
2022/07/17 17:30:08;;;;;;;4.60;2.60;;;25.40;65.40;;;;;;6074039;23;20026;-70
2022/07/17 17:32:39;;;;;;;5.05;2.50;;;25.40;65.20;;;;;;6138394;23;20104;-70
2022/07/17 17:39:38;;;;;;;5.82;2.63;;;25.20;64.70;;;;;;6168918;22;20020;-74
2022/07/17 17:42:04;;;;;;;4.63;2.20;;;25.10;65.30;;;;;;6129083;23;20032;-70
2022/07/17 17:44:30;;;;;;;4.18;2.03;;;24.90;65.40;;;;;;6129778;23;20013;-70
2022/07/17 17:50:34;;;;;;;3.70;2.00;;;24.70;66.40;;;;;;5990433;23;20019;-73
2022/07/17 17:54:32;;;;;;;4.38;2.22;;;24.50;67.90;;;;;;6011387;23;20400;-73
2022/07/17 17:57:29;;;;;;;6.82;2.15;;;24.50;67.90;;;;;;6024189;23;20030;-71
2022/07/17 17:59:57;;;;;;;4.20;2.50;;;24.50;69.80;;;;;;6025761;23;20066;-70
2022/07/17 18:02:41;;;;;;;4.28;2.40;;;24.40;68.40;;;;;;6040413;23;20014;-75
2022/07/17 18:16:09;;;;;;;4.03;2.72;;;24.10;73.40;;;;;;6066064;23;20013;-73
2022/07/17 18:18:52;;;;;;;4.93;2.47;;;24.00;72.10;;;;;;6016716;23;20019;-73
2022/07/17 18:21:22;;;;;;;6.70;2.47;;;23.90;74.10;;;;;;6040961;23;20113;-71
2022/07/17 18:23:50;;;;;;;4.65;2.55;;;23.80;74.00;;;;;;6041419;23;20025;-71
2022/07/17 18:26:17;;;;;;;7.53;2.40;;;23.60;73.80;;;;;;6016932;23;20111;-71
2022/07/17 18:28:43;;;;;;;4.93;2.67;;;23.50;74.40;;;;;;6017241;23;20048;-71
2022/07/17 18:31:15;;;;;;;5.72;2.35;;;23.30;75.00;;;;;;6090242;23;20014;-71
2022/07/17 18:33:40;;;;;;;6.93;2.35;;;23.30;76.40;;;;;;6104071;23;20021;-71
2022/07/17 18:36:06;;;;;;;7.63;3.00;;;23.20;75.30;;;;;;6104011;23;20448;-71
2022/07/17 18:38:35;;;;;;;5.22;2.70;;;23.10;76.20;;;;;;6155168;23;20010;-71
2022/07/17 18:41:05;;;;;;;5.13;2.80;;;23.00;76.30;;;;;;6146723;23;20029;-71
2022/07/17 18:43:31;;;;;;;5.47;2.90;;;22.90;77.00;;;;;;6157016;23;20060;-70
2022/07/17 18:45:58;;;;;;;;;;;22.90;77.50;;;;;;6155913;23;20021;-70
2022/07/17 18:48:27;;;;;;;6.28;3.08;;;22.80;79.10;;;;;;6130857;23;19912;-71
2022/07/17 18:50:53;;;;;;;6.68;2.80;;;22.80;78.00;;;;;;6155485;23;20100;-71
2022/07/17 18:53:23;;;;;;;;;;;22.70;78.60;;;;;;6131134;23;20072;-71
2022/07/17 18:55:53;;;;;;;5.65;2.75;;;22.60;78.90;;;;;;6130933;23;19919;-71
2022/07/17 18:58:19;;;;;;;6.75;2.78;;;22.50;79.70;;;;;;6131052;23;20440;-71
2022/07/17 19:00:45;;;;;;;5.65;2.80;;;22.50;79.20;;;;;;6131145;23;20048;-71
2022/07/17 19:03:10;;;;;;;;;;;22.40;79.90;;;;;;6131579;23;20332;-71
2022/07/17 19:05:36;;;;;;;8.55;3.35;;;22.30;81.90;;;;;;6131169;23;19913;-71
2022/07/17 19:08:03;;;;;;;3.88;2.65;;;22.30;80.70;;;;;;6155868;23;20073;-72
2022/07/17 19:10:30;;;;;;;;;;;22.30;80.90;;;;;;6155692;23;20025;-72
2022/07/17 19:12:57;;;;;;;4.90;2.72;;;22.20;83.00;;;;;;6130614;23;19919;-71
2022/07/17 19:15:23;;;;;;;10.10;3.03;;;22.20;81.10;;;;;;6155522;23;20033;-71
2022/07/17 19:17:48;;;;;;;;;;;22.10;82.30;;;;;;6155735;23;20031;-72
2022/07/17 19:20:15;;;;;;;6.95;2.70;;;22.00;85.20;;;;;;6131078;23;20078;-71
2022/07/17 19:22:41;;;;;;;6.53;3.15;;;21.90;83.50;;;;;;6130441;23;20088;-70
2022/07/17 19:25:10;;;;;;;;;;;21.80;84.10;;;;;;6156081;23;20457;-71
2022/07/17 19:27:36;;;;;;;8.35;5.05;;;21.70;86.80;;;;;;6155051;23;19912;-71
2022/07/17 19:30:03;;;;;;;;;;;21.70;84.60;;;;;;6155560;23;20025;-71
2022/07/17 19:32:29;;;;;;;18.20;4.75;;;21.60;86.40;;;;;;6155876;23;19948;-71
2022/07/17 19:34:55;;;;;;;7.95;4.32;;;21.50;85.20;;;;;;6130305;23;20021;-70
2022/07/17 19:37:22;;;;;;;;;;;21.50;85.60;;;;;;6131312;23;20055;-72
2022/07/17 19:39:47;;;;;;;7.82;3.50;;;21.40;87.80;;;;;;6159739;23;19916;-71
2022/07/17 19:42:13;;;;;;;;;;;21.30;86.50;;;;;;6135898;23;20024;-72
2022/07/17 19:44:39;;;;;;;13.77;3.70;;;21.10;88.80;;;;;;6160579;23;19916;-72
2022/07/17 19:47:05;;;;;;;8.70;3.20;;;21.10;87.20;;;;;;6135349;23;20016;-71
2022/07/17 19:49:31;;;;;;;7.72;4.32;;;21.00;87.60;;;;;;6186650;23;20075;-72
2022/07/17 19:51:57;;;;;;;7.30;3.55;;;20.90;88.10;;;;;;6159351;23;20478;-71
2022/07/17 19:54:23;;;;;;;9.05;3.75;;;20.90;88.90;;;;;;6135748;23;20024;-72
2022/07/17 19:56:50;;;;;;;;;;;20.70;89.30;;;;;;6135008;23;20060;-69
2022/07/17 19:59:16;;;;;;;15.13;6.53;;;20.70;90.80;;;;;;6160204;23;20244;-69
2022/07/17 20:01:42;;;;;;;;;;;20.60;90.20;;;;;;6159880;23;20024;-70
2022/07/17 20:04:09;;;;;;;7.25;3.72;;;20.50;91.50;;;;;;6186014;23;19916;-71
2022/07/17 20:06:36;;;;;;;8.82;3.63;;;20.40;90.60;;;;;;6134911;23;20025;-69
2022/07/17 20:09:02;;;;;;;7.28;3.40;;;20.30;90.60;;;;;;6160122;23;20013;-69
2022/07/17 20:11:28;;;;;;;9.20;3.85;;;20.20;90.90;;;;;;6160170;23;20013;-69
2022/07/17 20:13:54;;;;;;;6.70;4.07;;;20.20;91.20;;;;;;6186419;23;20017;-69
2022/07/17 20:16:24;;;;;;;8.85;4.25;;;20.10;91.40;;;;;;6135483;23;20067;-70
2022/07/17 20:18:51;;;;;;;8.50;4.50;;;20.00;92.20;;;;;;6135305;23;20064;-69
2022/07/17 20:21:17;;;;;;;14.02;4.10;;;19.90;92.10;;;;;;6135504;23;20013;-71
2022/07/17 20:23:43;;;;;;;6.15;4.20;;;19.80;92.60;;;;;;6159737;23;20100;-71
2022/07/17 20:26:09;;;;;;;10.98;5.07;;;19.70;93.00;;;;;;6159388;23;20441;-70
2022/07/17 20:28:35;;;;;;;13.13;4.63;;;19.60;93.40;;;;;;6159554;23;20072;-72
2022/07/17 20:31:00;;;;;;;7.97;5.00;;;19.60;94.10;;;;;;6134679;23;20389;-68
2022/07/17 20:33:26;;;;;;;9.15;5.63;;;19.50;94.30;;;;;;6110667;23;20025;-69
2022/07/17 20:35:54;;;;;;;8.70;5.20;;;19.40;94.70;;;;;;6186353;23;20056;-69
2022/07/17 20:38:20;;;;;;;7.90;5.00;;;19.40;95.10;;;;;;6160047;23;20036;-70
2022/07/17 20:40:46;;;;;;;;;;;19.30;95.50;;;;;;6160060;23;20013;-70
2022/07/17 20:43:13;;;;;;;8.17;5.40;;;19.20;97.40;;;;;;6159317;23;19987;-70
2022/07/17 20:45:39;;;;;;;9.60;5.10;;;19.20;96.20;;;;;;6159655;23;20106;-68
2022/07/17 20:48:10;;;;;;;9.35;4.63;;;19.20;96.10;;;;;;6134755;23;20021;-70
2022/07/17 20:50:39;;;;;;;8.93;4.25;;;19.10;96.40;;;;;;6159141;23;20444;-69
2022/07/17 20:53:05;;;;;;;7.68;4.50;;;19.00;96.40;;;;;;6185260;23;20013;-71
2022/07/17 20:55:34;;;;;;;10.13;4.10;;;18.90;97.20;;;;;;6134885;23;20075;-69
2022/07/17 20:57:59;;;;;;;9.18;4.30;;;18.80;97.30;;;;;;6159107;23;20017;-69
2022/07/17 21:00:28;;;;;;;9.75;5.13;;;18.70;97.50;;;;;;6135071;23;20101;-70
2022/07/17 21:03:23;;;;;;;7.75;3.53;;;18.70;97.60;;;;;;6159486;23;20020;-74
2022/07/17 21:05:52;;;;;;;5.10;3.28;;;18.60;98.30;;;;;;6159155;23;20013;-68
2022/07/17 21:08:22;;;;;;;7.95;4.10;;;18.60;97.70;;;;;;6134809;23;20013;-68
2022/07/17 21:10:48;;;;;;;8.48;3.58;;;18.60;97.80;;;;;;6159071;23;20045;-68
2022/07/17 21:13:15;;;;;;;10.10;3.67;;;18.60;97.90;;;;;;6159062;23;20052;-68
2022/07/17 21:15:40;;;;;;;6.18;3.70;;;18.50;97.90;;;;;;6134870;23;20025;-68
2022/07/17 21:18:07;;;;;;;6.15;3.63;;;18.50;98.00;;;;;;6159232;23;20024;-68
2022/07/17 21:20:32;;;;;;;8.55;4.28;;;18.50;98.30;;;;;;6159941;23;20347;-68
2022/07/17 21:22:58;;;;;;;10.60;3.83;;;18.40;98.30;;;;;;6134768;23;20013;-67
2022/07/17 21:25:24;;;;;;;8.32;3.85;;;18.40;98.60;;;;;;6134596;23;20021;-67
2022/07/17 21:27:50;;;;;;;7.70;4.00;;;18.40;98.60;;;;;;6134526;23;20021;-68
2022/07/17 21:30:15;;;;;;;5.38;3.47;;;18.30;98.80;;;;;;6159013;23;20063;-67
2022/07/17 21:32:42;;;;;;;6.72;3.88;;;18.20;99.10;;;;;;6134338;23;20046;-67
2022/07/17 21:35:07;;;;;;;;;;;18.20;99.20;;;;;;6159170;23;20028;-67
2022/07/17 21:37:34;;;;;;;8.15;4.28;;;18.20;99.90;;;;;;6158859;23;19916;-67
2022/07/17 21:40:03;;;;;;;;;;;18.10;99.60;;;;;;6185249;23;20084;-69
2022/07/17 21:42:34;;;;;;;7.07;4.03;;;18.10;99.90;;;;;;6158627;23;19916;-69
